sensor_id;sensor_type;location;lat;lon;timestamp;pressure;altitude;pressure_sealevel;temperature;humidity
36242;BME280;22283;42.748;12.732;2023-03-21T00:02:45;98203.78;;;9.00;100.00
36242;BME280;22283;42.748;12.732;2023-03-21T00:07:46;98201.69;;;9.05;100.00
36242;BME280;22283;42.748;12.732;2023-03-21T00:12:47;98199.69;;;9.09;100.00
36242;BME280;22283;42.748;12.732;2023-03-21T00:17:49;98196.34;;;9.07;100.00
36242;BME280;22283;42.748;12.732;2023-03-21T00:22:50;98199.16;;;9.04;100.00
36242;BME280;22283;42.748;12.732;2023-03-21T00:27:51;98205.41;;;9.03;100.00
36242;BME280;22283;42.748;12.732;2023-03-21T00:32:52;98195.91;;;8.86;100.00
36242;BME280;22283;42.748;12.732;2023-03-21T00:37:52;98206.88;;;8.80;100.00
36242;BME280;22283;42.748;12.732;2023-03-21T00:42:53;98200.13;;;8.76;100.00
36242;BME280;22283;42.748;12.732;2023-03-21T00:47:54;98202.94;;;8.73;100.00
36242;BME280;22283;42.748;12.732;2023-03-21T00:52:55;98192.13;;;8.63;100.00
36242;BME280;22283;42.748;12.732;2023-03-21T00:57:58;98193.72;;;8.66;100.00
36242;BME280;22283;42.748;12.732;2023-03-21T01:02:59;98192.50;;;8.71;100.00
36242;BME280;22283;42.748;12.732;2023-03-21T01:08:04;98176.69;;;8.71;100.00
36242;BME280;22283;42.748;12.732;2023-03-21T01:13:05;98181.97;;;8.71;100.00
36242;BME280;22283;42.748;12.732;2023-03-21T01:18:06;98169.69;;;8.70;100.00
36242;BME280;22283;42.748;12.732;2023-03-21T01:23:08;98169.91;;;8.67;100.00
36242;BME280;22283;42.748;12.732;2023-03-21T01:28:09;98162.94;;;8.66;100.00
36242;BME280;22283;42.748;12.732;2023-03-21T01:33:10;98158.50;;;8.67;100.00
36242;BME280;22283;42.748;12.732;2023-03-21T01:38:11;98159.38;;;8.67;100.00
36242;BME280;22283;42.748;12.732;2023-03-21T01:43:31;98154.09;;;8.67;100.00
36242;BME280;22283;42.748;12.732;2023-03-21T01:48:37;98146.19;;;8.67;100.00
36242;BME280;22283;42.748;12.732;2023-03-21T01:53:40;98145.41;;;8.65;100.00
36242;BME280;22283;42.748;12.732;2023-03-21T01:58:44;98138.34;;;8.66;100.00
36242;BME280;22283;42.748;12.732;2023-03-21T02:04:15;98137.69;;;8.62;100.00
36242;BME280;22283;42.748;12.732;2023-03-21T02:09:46;98130.44;;;8.66;100.00
36242;BME280;22283;42.748;12.732;2023-03-21T02:14:53;98131.47;;;8.63;100.00
36242;BME280;22283;42.748;12.732;2023-03-21T02:36:47;98100.03;;;8.60;100.00
36242;BME280;22283;42.748;12.732;2023-03-21T02:42:02;98094.97;;;8.57;100.00
36242;BME280;22283;42.748;12.732;2023-03-21T02:52:28;98082.94;;;8.53;100.00
36242;BME280;22283;42.748;12.732;2023-03-21T02:57:32;98081.44;;;8.49;100.00
36242;BME280;22283;42.748;12.732;2023-03-21T03:02:36;98076.16;;;8.49;100.00
36242;BME280;22283;42.748;12.732;2023-03-21T03:13:14;98052.09;;;8.41;100.00
36242;BME280;22283;42.748;12.732;2023-03-21T03:29:04;98069.06;;;8.22;100.00
36242;BME280;22283;42.748;12.732;2023-03-21T03:34:21;98064.75;;;8.21;100.00
36242;BME280;22283;42.748;12.732;2023-03-21T03:39:40;98073.94;;;8.28;100.00
36242;BME280;22283;42.748;12.732;2023-03-21T03:44:46;98080.72;;;8.32;100.00
36242;BME280;22283;42.748;12.732;2023-03-21T03:55:21;98063.47;;;8.41;100.00
36242;BME280;22283;42.748;12.732;2023-03-21T04:00:25;98065.81;;;8.46;100.00
36242;BME280;22283;42.748;12.732;2023-03-21T04:05:26;98053.38;;;8.48;100.00
36242;BME280;22283;42.748;12.732;2023-03-21T04:10:27;98068.72;;;8.55;100.00
36242;BME280;22283;42.748;12.732;2023-03-21T04:15:28;98068.59;;;8.57;100.00
36242;BME280;22283;42.748;12.732;2023-03-21T04:20:36;98070.31;;;8.71;100.00
36242;BME280;22283;42.748;12.732;2023-03-21T04:25:37;98063.78;;;8.64;100.00
36242;BME280;22283;42.748;12.732;2023-03-21T04:30:38;98075.16;;;8.64;100.00
36242;BME280;22283;42.748;12.732;2023-03-21T04:35:45;98069.88;;;8.64;100.00
36242;BME280;22283;42.748;12.732;2023-03-21T04:40:47;98079.69;;;8.62;100.00
36242;BME280;22283;42.748;12.732;2023-03-21T04:45:49;98079.78;;;8.60;100.00
36242;BME280;22283;42.748;12.732;2023-03-21T04:50:51;98078.38;;;8.55;100.00
36242;BME280;22283;42.748;12.732;2023-03-21T04:55:52;98081.63;;;8.46;100.00
36242;BME280;22283;42.748;12.732;2023-03-21T05:00:52;98086.91;;;8.46;100.00
36242;BME280;22283;42.748;12.732;2023-03-21T05:05:54;98091.16;;;8.48;100.00
36242;BME280;22283;42.748;12.732;2023-03-21T05:10:54;98087.66;;;8.48;100.00
36242;BME280;22283;42.748;12.732;2023-03-21T05:15:58;98091.97;;;8.49;100.00
36242;BME280;22283;42.748;12.732;2023-03-21T05:20:59;98098.56;;;8.56;100.00
36242;BME280;22283;42.748;12.732;2023-03-21T05:25:59;98099.94;;;8.61;100.00
36242;BME280;22283;42.748;12.732;2023-03-21T05:31:27;98097.94;;;8.65;100.00
36242;BME280;22283;42.748;12.732;2023-03-21T05:36:38;98108.00;;;8.73;100.00
36242;BME280;22283;42.748;12.732;2023-03-21T05:41:42;98118.53;;;8.73;100.00
36242;BME280;22283;42.748;12.732;2023-03-21T05:46:43;98114.22;;;8.72;100.00
36242;BME280;22283;42.748;12.732;2023-03-21T05:51:44;98128.13;;;8.74;100.00
36242;BME280;22283;42.748;12.732;2023-03-21T05:56:46;98124.47;;;8.76;100.00
36242;BME280;22283;42.748;12.732;2023-03-21T06:01:55;98128.41;;;8.83;100.00
36242;BME280;22283;42.748;12.732;2023-03-21T06:06:55;98134.19;;;8.89;100.00
36242;BME280;22283;42.748;12.732;2023-03-21T06:11:57;98128.09;;;9.01;100.00
36242;BME280;22283;42.748;12.732;2023-03-21T06:17:01;98129.41;;;9.08;100.00
36242;BME280;22283;42.748;12.732;2023-03-21T06:22:03;98138.38;;;9.18;100.00
36242;BME280;22283;42.748;12.732;2023-03-21T06:27:06;98139.84;;;9.22;100.00
36242;BME280;22283;42.748;12.732;2023-03-21T06:32:20;98133.84;;;9.46;100.00
36242;BME280;22283;42.748;12.732;2023-03-21T06:37:25;98131.44;;;9.68;100.00
36242;BME280;22283;42.748;12.732;2023-03-21T06:42:30;98133.53;;;9.89;100.00
36242;BME280;22283;42.748;12.732;2023-03-21T06:47:37;98134.44;;;10.26;100.00
36242;BME280;22283;42.748;12.732;2023-03-21T06:52:43;98133.84;;;10.46;100.00
36242;BME280;22283;42.748;12.732;2023-03-21T06:57:45;98142.41;;;10.50;100.00
36242;BME280;22283;42.748;12.732;2023-03-21T07:02:46;98137.91;;;10.87;100.00
36242;BME280;22283;42.748;12.732;2023-03-21T07:07:50;98132.44;;;11.59;100.00
36242;BME280;22283;42.748;12.732;2023-03-21T07:12:51;98130.81;;;11.92;100.00
36242;BME280;22283;42.748;12.732;2023-03-21T07:17:58;98135.50;;;12.22;93.15
36242;BME280;22283;42.748;12.732;2023-03-21T07:22:59;98131.41;;;12.29;93.40
36242;BME280;22283;42.748;12.732;2023-03-21T07:28:01;98138.28;;;12.32;92.50
36242;BME280;22283;42.748;12.732;2023-03-21T07:33:02;98141.78;;;12.21;91.32
36242;BME280;22283;42.748;12.732;2023-03-21T07:38:04;98138.28;;;12.32;91.58
36242;BME280;22283;42.748;12.732;2023-03-21T07:43:04;98137.09;;;12.13;91.75
36242;BME280;22283;42.748;12.732;2023-03-21T07:48:09;98134.63;;;11.65;95.42
36242;BME280;22283;42.748;12.732;2023-03-21T07:53:10;98132.78;;;11.43;97.83
36242;BME280;22283;42.748;12.732;2023-03-21T07:58:10;98129.06;;;11.46;99.00
36242;BME280;22283;42.748;12.732;2023-03-21T08:03:11;98128.78;;;11.84;97.96
36242;BME280;22283;42.748;12.732;2023-03-21T08:08:12;98123.09;;;12.11;95.66
36242;BME280;22283;42.748;12.732;2023-03-21T08:13:13;98116.31;;;12.29;90.23
36242;BME280;22283;42.748;12.732;2023-03-21T08:18:13;98118.50;;;12.36;92.51
36242;BME280;22283;42.748;12.732;2023-03-21T08:23:14;98113.19;;;12.36;92.88
36242;BME280;22283;42.748;12.732;2023-03-21T08:28:15;98112.31;;;12.46;94.14
36242;BME280;22283;42.748;12.732;2023-03-21T08:33:15;98125.91;;;12.53;92.11
36242;BME280;22283;42.748;12.732;2023-03-21T08:38:17;98119.38;;;12.68;92.70
36242;BME280;22283;42.748;12.732;2023-03-21T08:43:18;98126.13;;;12.72;92.10
36242;BME280;22283;42.748;12.732;2023-03-21T08:48:19;98121.00;;;12.80;91.85
36242;BME280;22283;42.748;12.732;2023-03-21T08:53:19;98113.53;;;12.74;97.60
36242;BME280;22283;42.748;12.732;2023-03-21T08:58:21;98119.72;;;13.07;98.61
36242;BME280;22283;42.748;12.732;2023-03-21T09:03:21;98116.09;;;13.50;95.51
36242;BME280;22283;42.748;12.732;2023-03-21T09:08:22;98116.44;;;13.36;95.38
36242;BME280;22283;42.748;12.732;2023-03-21T09:13:23;98117.47;;;13.23;95.34
36242;BME280;22283;42.748;12.732;2023-03-21T09:18:23;98118.63;;;13.51;93.17
36242;BME280;22283;42.748;12.732;2023-03-21T09:23:44;98109.38;;;13.76;89.29
36242;BME280;22283;42.748;12.732;2023-03-21T09:28:46;98108.41;;;14.08;82.40
36242;BME280;22283;42.748;12.732;2023-03-21T09:33:51;98110.44;;;14.35;84.31
36242;BME280;22283;42.748;12.732;2023-03-21T09:38:52;98109.41;;;14.76;82.42
36242;BME280;22283;42.748;12.732;2023-03-21T09:49:37;98106.47;;;15.38;70.98
36242;BME280;22283;42.748;12.732;2023-03-21T09:54:41;98109.00;;;15.30;70.38
36242;BME280;22283;42.748;12.732;2023-03-21T09:59:45;98101.41;;;15.35;70.05
36242;BME280;22283;42.748;12.732;2023-03-21T10:04:47;98093.53;;;15.43;66.33
36242;BME280;22283;42.748;12.732;2023-03-21T10:09:49;98091.47;;;15.17;68.77
36242;BME280;22283;42.748;12.732;2023-03-21T10:14:53;98100.88;;;15.02;70.09
36242;BME280;22283;42.748;12.732;2023-03-21T10:25:14;98097.06;;;15.34;68.66
36242;BME280;22283;42.748;12.732;2023-03-21T10:30:48;98096.31;;;15.51;66.53
36242;BME280;22283;42.748;12.732;2023-03-21T10:35:52;98097.69;;;15.84;64.07
36242;BME280;22283;42.748;12.732;2023-03-21T10:40:54;98079.38;;;15.89;62.93
36242;BME280;22283;42.748;12.732;2023-03-21T10:45:56;98085.31;;;16.11;63.66
36242;BME280;22283;42.748;12.732;2023-03-21T10:50:56;98086.94;;;16.04;61.62
36242;BME280;22283;42.748;12.732;2023-03-21T10:55:59;98078.59;;;15.60;62.01
36242;BME280;22283;42.748;12.732;2023-03-21T11:01:02;98076.28;;;15.94;61.22
36242;BME280;22283;42.748;12.732;2023-03-21T11:11:40;98070.91;;;16.04;60.25
36242;BME280;22283;42.748;12.732;2023-03-21T11:16:48;98071.94;;;15.93;57.72
36242;BME280;22283;42.748;12.732;2023-03-21T11:21:48;98057.31;;;16.25;56.58
36242;BME280;22283;42.748;12.732;2023-03-21T11:26:49;98063.13;;;16.38;54.75
36242;BME280;22283;42.748;12.732;2023-03-21T11:31:50;98053.09;;;16.67;57.16
36242;BME280;22283;42.748;12.732;2023-03-21T11:36:52;98045.75;;;16.69;53.86
36242;BME280;22283;42.748;12.732;2023-03-21T11:41:57;98040.03;;;16.64;54.22
36242;BME280;22283;42.748;12.732;2023-03-21T11:46:59;98037.44;;;16.90;53.68
36242;BME280;22283;42.748;12.732;2023-03-21T11:52:21;98022.25;;;16.91;52.68
36242;BME280;22283;42.748;12.732;2023-03-21T11:57:45;98019.00;;;16.79;52.46
36242;BME280;22283;42.748;12.732;2023-03-21T12:08:24;98002.78;;;16.81;53.22
36242;BME280;22283;42.748;12.732;2023-03-21T12:24:21;97989.66;;;16.34;53.19
36242;BME280;22283;42.748;12.732;2023-03-21T12:39:49;97971.88;;;16.78;52.81
36242;BME280;22283;42.748;12.732;2023-03-21T12:44:55;97973.22;;;17.00;52.89
36242;BME280;22283;42.748;12.732;2023-03-21T12:50:14;97960.66;;;17.18;51.03
36242;BME280;22283;42.748;12.732;2023-03-21T12:55:26;97958.91;;;17.09;53.54
36242;BME280;22283;42.748;12.732;2023-03-21T13:05:43;97949.97;;;17.18;51.64
36242;BME280;22283;42.748;12.732;2023-03-21T13:10:46;97947.28;;;16.92;52.67
36242;BME280;22283;42.748;12.732;2023-03-21T13:21:18;97948.56;;;17.14;52.68
36242;BME280;22283;42.748;12.732;2023-03-21T13:26:40;97941.06;;;17.44;52.01
36242;BME280;22283;42.748;12.732;2023-03-21T13:31:47;97932.81;;;17.37;50.47
36242;BME280;22283;42.748;12.732;2023-03-21T13:36:50;97929.63;;;17.34;50.16
36242;BME280;22283;42.748;12.732;2023-03-21T13:41:51;97921.78;;;17.32;50.95
36242;BME280;22283;42.748;12.732;2023-03-21T13:46:59;97920.25;;;17.30;50.68
36242;BME280;22283;42.748;12.732;2023-03-21T14:02:31;97924.09;;;17.01;51.98
36242;BME280;22283;42.748;12.732;2023-03-21T14:07:33;97906.13;;;17.11;52.05
36242;BME280;22283;42.748;12.732;2023-03-21T14:12:38;97909.28;;;17.07;51.72
36242;BME280;22283;42.748;12.732;2023-03-21T14:17:49;97909.28;;;17.07;53.13
36242;BME280;22283;42.748;12.732;2023-03-21T14:22:50;97902.16;;;16.89;51.88
36242;BME280;22283;42.748;12.732;2023-03-21T14:27:55;97897.66;;;16.90;52.74
36242;BME280;22283;42.748;12.732;2023-03-21T14:32:59;97895.97;;;16.89;53.11
36242;BME280;22283;42.748;12.732;2023-03-21T14:38:04;97888.53;;;16.75;52.83
36242;BME280;22283;42.748;12.732;2023-03-21T14:43:05;97890.28;;;16.84;53.80
36242;BME280;22283;42.748;12.732;2023-03-21T14:48:07;97894.50;;;16.94;54.75
36242;BME280;22283;42.748;12.732;2023-03-21T14:53:17;97882.00;;;16.95;52.94
36242;BME280;22283;42.748;12.732;2023-03-21T14:58:19;97888.66;;;16.91;53.86
36242;BME280;22283;42.748;12.732;2023-03-21T15:03:22;97885.59;;;16.86;52.61
36242;BME280;22283;42.748;12.732;2023-03-21T15:08:26;97874.28;;;16.92;53.02
36242;BME280;22283;42.748;12.732;2023-03-21T15:13:33;97881.00;;;16.96;53.49
36242;BME280;22283;42.748;12.732;2023-03-21T15:18:37;97883.31;;;16.91;54.23
36242;BME280;22283;42.748;12.732;2023-03-21T15:23:43;97882.88;;;16.78;53.49
36242;BME280;22283;42.748;12.732;2023-03-21T15:28:47;97878.16;;;16.71;55.16
36242;BME280;22283;42.748;12.732;2023-03-21T15:33:53;97873.78;;;16.70;53.93
36242;BME280;22283;42.748;12.732;2023-03-21T15:38:54;97873.41;;;16.65;54.29
36242;BME280;22283;42.748;12.732;2023-03-21T15:54:25;97880.00;;;16.53;54.41
36242;BME280;22283;42.748;12.732;2023-03-21T15:59:32;97879.94;;;16.45;54.08
36242;BME280;22283;42.748;12.732;2023-03-21T16:04:53;97884.53;;;16.35;55.49
36242;BME280;22283;42.748;12.732;2023-03-21T16:10:00;97895.38;;;16.33;54.36
36242;BME280;22283;42.748;12.732;2023-03-21T16:15:01;97893.31;;;16.27;55.08
36242;BME280;22283;42.748;12.732;2023-03-21T16:20:08;97897.28;;;16.23;55.40
36242;BME280;22283;42.748;12.732;2023-03-21T16:25:10;97904.16;;;16.08;55.57
36242;BME280;22283;42.748;12.732;2023-03-21T16:30:15;97914.69;;;16.09;55.84
36242;BME280;22283;42.748;12.732;2023-03-21T16:35:17;97921.16;;;16.07;56.01
36242;BME280;22283;42.748;12.732;2023-03-21T16:40:26;97928.25;;;15.98;56.06
36242;BME280;22283;42.748;12.732;2023-03-21T16:45:28;97934.06;;;15.84;56.73
36242;BME280;22283;42.748;12.732;2023-03-21T16:50:32;97937.94;;;15.71;56.60
36242;BME280;22283;42.748;12.732;2023-03-21T16:55:34;97932.09;;;15.58;58.02
36242;BME280;22283;42.748;12.732;2023-03-21T17:00:36;97933.47;;;15.35;59.10
36242;BME280;22283;42.748;12.732;2023-03-21T17:05:37;97934.25;;;15.17;60.16
36242;BME280;22283;42.748;12.732;2023-03-21T17:10:38;97927.31;;;14.97;60.88
36242;BME280;22283;42.748;12.732;2023-03-21T17:15:38;97929.34;;;14.56;63.12
36242;BME280;22283;42.748;12.732;2023-03-21T17:20:40;97927.38;;;14.19;65.22
36242;BME280;22283;42.748;12.732;2023-03-21T17:25:41;97933.41;;;14.02;69.31
36242;BME280;22283;42.748;12.732;2023-03-21T17:30:42;97930.81;;;13.81;72.23
36242;BME280;22283;42.748;12.732;2023-03-21T17:35:43;97933.78;;;13.38;76.21
36242;BME280;22283;42.748;12.732;2023-03-21T17:40:43;97938.44;;;12.94;80.31
36242;BME280;22283;42.748;12.732;2023-03-21T17:45:44;97942.75;;;12.64;83.24
36242;BME280;22283;42.748;12.732;2023-03-21T17:50:45;97954.97;;;12.35;86.16
36242;BME280;22283;42.748;12.732;2023-03-21T17:55:45;97947.22;;;12.11;89.05
36242;BME280;22283;42.748;12.732;2023-03-21T18:00:46;97934.63;;;11.92;90.57
36242;BME280;22283;42.748;12.732;2023-03-21T18:05:46;97942.59;;;11.80;92.77
36242;BME280;22283;42.748;12.732;2023-03-21T18:10:47;97947.16;;;11.78;93.23
36242;BME280;22283;42.748;12.732;2023-03-21T18:15:48;97949.94;;;11.77;93.02
36242;BME280;22283;42.748;12.732;2023-03-21T18:20:49;97959.84;;;11.64;94.67
36242;BME280;22283;42.748;12.732;2023-03-21T18:25:50;97967.94;;;11.51;95.64
36242;BME280;22283;42.748;12.732;2023-03-21T18:30:51;97960.94;;;11.27;98.81
36242;BME280;22283;42.748;12.732;2023-03-21T18:35:52;97968.44;;;11.22;98.52
36242;BME280;22283;42.748;12.732;2023-03-21T18:40:53;97974.78;;;11.20;97.45
36242;BME280;22283;42.748;12.732;2023-03-21T18:45:54;97981.91;;;10.97;99.49
36242;BME280;22283;42.748;12.732;2023-03-21T18:50:55;97979.91;;;10.65;100.00
36242;BME280;22283;42.748;12.732;2023-03-21T18:55:56;97994.84;;;10.42;100.00
36242;BME280;22283;42.748;12.732;2023-03-21T19:00:56;98003.34;;;10.34;100.00
36242;BME280;22283;42.748;12.732;2023-03-21T19:05:58;98011.34;;;10.22;100.00
36242;BME280;22283;42.748;12.732;2023-03-21T19:10:59;98008.28;;;10.15;100.00
36242;BME280;22283;42.748;12.732;2023-03-21T19:16:02;98008.72;;;10.09;100.00
36242;BME280;22283;42.748;12.732;2023-03-21T19:21:03;98008.28;;;10.15;100.00
36242;BME280;22283;42.748;12.732;2023-03-21T19:26:04;98021.72;;;10.12;100.00
36242;BME280;22283;42.748;12.732;2023-03-21T19:31:07;98023.69;;;10.21;100.00
36242;BME280;22283;42.748;12.732;2023-03-21T19:36:08;98016.72;;;10.20;100.00
36242;BME280;22283;42.748;12.732;2023-03-21T19:41:09;98029.56;;;10.01;100.00
36242;BME280;22283;42.748;12.732;2023-03-21T19:46:09;98034.88;;;9.64;100.00
36242;BME280;22283;42.748;12.732;2023-03-21T19:51:13;98031.81;;;9.45;100.00
36242;BME280;22283;42.748;12.732;2023-03-21T19:56:14;98034.88;;;9.51;100.00
36242;BME280;22283;42.748;12.732;2023-03-21T20:01:16;98038.84;;;9.70;100.00
36242;BME280;22283;42.748;12.732;2023-03-21T20:06:16;98036.53;;;9.65;100.00
36242;BME280;22283;42.748;12.732;2023-03-21T20:11:18;98043.13;;;9.47;100.00
36242;BME280;22283;42.748;12.732;2023-03-21T20:16:19;98036.19;;;9.20;100.00
36242;BME280;22283;42.748;12.732;2023-03-21T20:21:20;98048.63;;;9.44;100.00
36242;BME280;22283;42.748;12.732;2023-03-21T20:26:21;98044.81;;;9.48;100.00
36242;BME280;22283;42.748;12.732;2023-03-21T20:31:23;98050.53;;;9.29;100.00
36242;BME280;22283;42.748;12.732;2023-03-21T20:36:24;98050.09;;;9.09;100.00
36242;BME280;22283;42.748;12.732;2023-03-21T20:41:25;98046.69;;;8.95;100.00
36242;BME280;22283;42.748;12.732;2023-03-21T20:46:26;98048.16;;;8.73;100.00
36242;BME280;22283;42.748;12.732;2023-03-21T20:51:27;98047.13;;;8.89;100.00
36242;BME280;22283;42.748;12.732;2023-03-21T20:56:28;98047.13;;;8.89;100.00
36242;BME280;22283;42.748;12.732;2023-03-21T21:01:30;98042.50;;;8.79;100.00
36242;BME280;22283;42.748;12.732;2023-03-21T21:06:31;98032.25;;;8.88;100.00
36242;BME280;22283;42.748;12.732;2023-03-21T21:11:31;98043.66;;;9.01;100.00
36242;BME280;22283;42.748;12.732;2023-03-21T21:16:32;98031.19;;;8.77;100.00
36242;BME280;22283;42.748;12.732;2023-03-21T21:21:33;98042.03;;;8.60;100.00
36242;BME280;22283;42.748;12.732;2023-03-21T21:26:34;98048.16;;;8.60;100.00
36242;BME280;22283;42.748;12.732;2023-03-21T21:31:34;98045.03;;;8.94;100.00
36242;BME280;22283;42.748;12.732;2023-03-21T21:36:36;98044.81;;;8.71;100.00
36242;BME280;22283;42.748;12.732;2023-03-21T21:41:37;98041.59;;;8.53;100.00
36242;BME280;22283;42.748;12.732;2023-03-21T21:46:38;98046.63;;;8.44;100.00
36242;BME280;22283;42.748;12.732;2023-03-21T21:51:39;98039.44;;;8.46;100.00
36242;BME280;22283;42.748;12.732;2023-03-21T21:56:41;98031.34;;;8.34;100.00
36242;BME280;22283;42.748;12.732;2023-03-21T22:01:41;98035.56;;;8.24;100.00
36242;BME280;22283;42.748;12.732;2023-03-21T22:06:42;98037.25;;;8.25;100.00
36242;BME280;22283;42.748;12.732;2023-03-21T22:11:43;98047.25;;;8.47;100.00
36242;BME280;22283;42.748;12.732;2023-03-21T22:16:43;98035.56;;;8.24;100.00
36242;BME280;22283;42.748;12.732;2023-03-21T22:21:45;98049.72;;;8.09;100.00
36242;BME280;22283;42.748;12.732;2023-03-21T22:26:46;98054.22;;;8.07;100.00
36242;BME280;22283;42.748;12.732;2023-03-21T22:31:47;98057.75;;;7.93;100.00
36242;BME280;22283;42.748;12.732;2023-03-21T22:36:48;98059.56;;;7.78;100.00
36242;BME280;22283;42.748;12.732;2023-03-21T22:41:50;98056.66;;;7.83;100.00
36242;BME280;22283;42.748;12.732;2023-03-21T22:46:51;98059.91;;;8.01;100.00
36242;BME280;22283;42.748;12.732;2023-03-21T22:51:52;98059.34;;;7.96;100.00
36242;BME280;22283;42.748;12.732;2023-03-21T22:56:54;98052.84;;;8.01;100.00
36242;BME280;22283;42.748;12.732;2023-03-21T23:01:55;98059.16;;;7.99;100.00
36242;BME280;22283;42.748;12.732;2023-03-21T23:06:56;98065.53;;;8.09;100.00
36242;BME280;22283;42.748;12.732;2023-03-21T23:11:57;98063.09;;;7.92;100.00
36242;BME280;22283;42.748;12.732;2023-03-21T23:16:57;98076.31;;;7.63;100.00
36242;BME280;22283;42.748;12.732;2023-03-21T23:21:59;98077.84;;;7.38;100.00
36242;BME280;22283;42.748;12.732;2023-03-21T23:27:01;98083.75;;;7.28;100.00
36242;BME280;22283;42.748;12.732;2023-03-21T23:32:01;98094.06;;;7.17;100.00
36242;BME280;22283;42.748;12.732;2023-03-21T23:37:02;98099.38;;;7.01;100.00
36242;BME280;22283;42.748;12.732;2023-03-21T23:42:03;98099.94;;;6.92;100.00
36242;BME280;22283;42.748;12.732;2023-03-21T23:47:03;98100.25;;;7.01;100.00
36242;BME280;22283;42.748;12.732;2023-03-21T23:52:04;98093.44;;;7.13;100.00
36242;BME280;22283;42.748;12.732;2023-03-21T23:57:04;98100.00;;;7.20;100.00
